sensor_id;sensor_type;location;lat;lon;timestamp;pressure;altitude;pressure_sealevel;temperature;humidity
31873;BME280;22407;42.820;23.374;2022-07-12T10:29:04;96098.50;;;24.31;33.25
31873;BME280;22407;42.820;23.374;2022-07-12T10:31:36;96095.95;;;24.63;32.97
31873;BME280;22407;42.820;23.374;2022-07-12T10:34:12;96092.55;;;25.33;30.92
31873;BME280;22407;42.820;23.374;2022-07-12T10:39:27;96086.06;;;25.56;30.85
31873;BME280;22407;42.820;23.374;2022-07-12T10:42:13;96083.83;;;25.24;32.16
31873;BME280;22407;42.820;23.374;2022-07-12T10:44:47;96085.13;;;24.56;31.91
31873;BME280;22407;42.820;23.374;2022-07-12T10:47:17;96078.33;;;24.43;32.66
31873;BME280;22407;42.820;23.374;2022-07-12T10:49:49;96080.22;;;24.49;32.49
31873;BME280;22407;42.820;23.374;2022-07-12T10:52:26;96078.06;;;24.15;33.49
31873;BME280;22407;42.820;23.374;2022-07-12T10:57:41;96076.39;;;24.99;32.92
31873;BME280;22407;42.820;23.374;2022-07-12T11:00:13;96082.92;;;25.21;31.62
31873;BME280;22407;42.820;23.374;2022-07-12T11:02:42;96084.66;;;24.73;32.13
31873;BME280;22407;42.820;23.374;2022-07-12T11:05:11;96083.15;;;24.54;32.06
31873;BME280;22407;42.820;23.374;2022-07-12T11:07:40;96086.80;;;24.44;33.09
31873;BME280;22407;42.820;23.374;2022-07-12T11:10:11;96092.38;;;23.93;32.79
31873;BME280;22407;42.820;23.374;2022-07-12T11:12:41;96082.41;;;24.56;32.88
31873;BME280;22407;42.820;23.374;2022-07-12T11:15:10;96085.16;;;24.72;32.74
31873;BME280;22407;42.820;23.374;2022-07-12T11:17:41;96086.00;;;25.31;31.67
31873;BME280;22407;42.820;23.374;2022-07-12T11:20:11;96075.17;;;25.40;31.14
31873;BME280;22407;42.820;23.374;2022-07-12T11:22:42;96076.51;;;25.24;31.63
31873;BME280;22407;42.820;23.374;2022-07-12T11:25:12;96080.30;;;25.17;32.27
31873;BME280;22407;42.820;23.374;2022-07-12T11:27:41;96081.41;;;25.02;33.34
31873;BME280;22407;42.820;23.374;2022-07-12T11:30:10;96085.99;;;24.79;33.33
31873;BME280;22407;42.820;23.374;2022-07-12T11:32:42;96089.41;;;24.55;32.58
31873;BME280;22407;42.820;23.374;2022-07-12T11:35:23;96085.65;;;24.49;33.16
31873;BME280;22407;42.820;23.374;2022-07-12T11:37:56;96065.45;;;25.42;30.65
31873;BME280;22407;42.820;23.374;2022-07-12T11:40:28;96070.13;;;26.17;29.33
31873;BME280;22407;42.820;23.374;2022-07-12T11:43:03;96067.55;;;26.75;29.46
31873;BME280;22407;42.820;23.374;2022-07-12T11:45:33;96051.94;;;27.09;28.21
31873;BME280;22407;42.820;23.374;2022-07-12T11:48:04;96058.43;;;27.08;28.75
31873;BME280;22407;42.820;23.374;2022-07-12T11:50:34;96045.50;;;27.22;28.61
31873;BME280;22407;42.820;23.374;2022-07-12T11:53:03;96046.22;;;27.39;27.46
31873;BME280;22407;42.820;23.374;2022-07-12T11:55:40;96047.08;;;27.30;27.55
31873;BME280;22407;42.820;23.374;2022-07-12T11:58:07;96042.34;;;27.25;27.57
31873;BME280;22407;42.820;23.374;2022-07-12T12:00:36;96039.31;;;26.23;27.52
31873;BME280;22407;42.820;23.374;2022-07-12T12:03:06;96033.97;;;25.84;28.99
31873;BME280;22407;42.820;23.374;2022-07-12T12:05:36;96047.13;;;25.46;30.36
31873;BME280;22407;42.820;23.374;2022-07-12T12:08:06;96045.61;;;25.19;30.23
31873;BME280;22407;42.820;23.374;2022-07-12T12:10:35;96035.57;;;25.19;30.14
31873;BME280;22407;42.820;23.374;2022-07-12T12:13:11;96037.29;;;25.77;29.96
31873;BME280;22407;42.820;23.374;2022-07-12T12:15:35;96026.34;;;25.59;29.05
31873;BME280;22407;42.820;23.374;2022-07-12T12:18:05;96027.51;;;26.11;28.53
31873;BME280;22407;42.820;23.374;2022-07-12T12:20:36;96025.91;;;26.65;27.65
31873;BME280;22407;42.820;23.374;2022-07-12T12:23:10;96022.95;;;27.45;27.22
31873;BME280;22407;42.820;23.374;2022-07-12T12:25:36;96022.82;;;27.73;27.39
31873;BME280;22407;42.820;23.374;2022-07-12T12:28:05;96020.59;;;27.49;27.19
31873;BME280;22407;42.820;23.374;2022-07-12T12:30:47;96025.33;;;26.93;27.08
31873;BME280;22407;42.820;23.374;2022-07-12T12:33:06;96029.47;;;25.87;28.74
31873;BME280;22407;42.820;23.374;2022-07-12T12:35:36;96037.59;;;25.15;30.37
31873;BME280;22407;42.820;23.374;2022-07-12T12:38:15;96034.31;;;24.99;31.41
31873;BME280;22407;42.820;23.374;2022-07-12T12:40:51;96029.31;;;25.41;30.33
31873;BME280;22407;42.820;23.374;2022-07-12T12:43:20;96029.80;;;26.32;29.49
31873;BME280;22407;42.820;23.374;2022-07-12T12:48:22;96025.50;;;25.90;28.70
31873;BME280;22407;42.820;23.374;2022-07-12T12:50:53;96023.81;;;25.89;29.18
31873;BME280;22407;42.820;23.374;2022-07-12T12:53:24;96020.57;;;25.48;30.46
31873;BME280;22407;42.820;23.374;2022-07-12T12:55:54;96019.39;;;25.22;30.58
31873;BME280;22407;42.820;23.374;2022-07-12T12:58:24;96022.50;;;24.80;30.66
31873;BME280;22407;42.820;23.374;2022-07-12T13:00:54;96016.85;;;24.59;31.29
31873;BME280;22407;42.820;23.374;2022-07-12T13:03:24;96025.97;;;24.56;31.89
31873;BME280;22407;42.820;23.374;2022-07-12T13:05:53;96024.48;;;25.43;30.70
31873;BME280;22407;42.820;23.374;2022-07-12T13:08:22;96016.94;;;25.30;30.02
31873;BME280;22407;42.820;23.374;2022-07-12T13:10:51;96016.66;;;25.54;30.54
31873;BME280;22407;42.820;23.374;2022-07-12T13:13:39;96014.63;;;25.33;30.17
31873;BME280;22407;42.820;23.374;2022-07-12T13:16:08;96014.11;;;24.88;30.49
31873;BME280;22407;42.820;23.374;2022-07-12T13:18:37;96021.45;;;24.59;32.16
31873;BME280;22407;42.820;23.374;2022-07-12T13:21:05;96019.12;;;25.07;31.64
31873;BME280;22407;42.820;23.374;2022-07-12T13:23:34;96017.23;;;25.62;30.70
31873;BME280;22407;42.820;23.374;2022-07-12T13:26:04;96010.05;;;26.09;29.03
31873;BME280;22407;42.820;23.374;2022-07-12T13:28:33;96017.30;;;26.52;29.21
31873;BME280;22407;42.820;23.374;2022-07-12T13:31:02;96011.28;;;26.68;28.53
31873;BME280;22407;42.820;23.374;2022-07-12T13:33:31;96016.88;;;26.27;28.05
31873;BME280;22407;42.820;23.374;2022-07-12T13:36:00;96001.84;;;25.75;29.27
31873;BME280;22407;42.820;23.374;2022-07-12T13:38:29;96007.06;;;25.76;29.24
31873;BME280;22407;42.820;23.374;2022-07-12T13:40:58;96017.47;;;26.39;29.01
31873;BME280;22407;42.820;23.374;2022-07-12T13:43:27;95998.95;;;26.84;27.55
31873;BME280;22407;42.820;23.374;2022-07-12T13:45:55;95998.38;;;26.73;27.74
31873;BME280;22407;42.820;23.374;2022-07-12T13:48:25;96001.73;;;26.22;28.37
31873;BME280;22407;42.820;23.374;2022-07-12T13:50:54;96004.55;;;26.34;28.09
31873;BME280;22407;42.820;23.374;2022-07-12T13:53:23;96011.50;;;26.21;28.89
31873;BME280;22407;42.820;23.374;2022-07-12T13:55:52;96007.39;;;25.86;29.52
31873;BME280;22407;42.820;23.374;2022-07-12T13:58:21;96006.36;;;25.87;29.10
31873;BME280;22407;42.820;23.374;2022-07-12T14:00:50;96008.56;;;26.32;29.21
31873;BME280;22407;42.820;23.374;2022-07-12T14:03:18;96012.59;;;26.04;29.15
31873;BME280;22407;42.820;23.374;2022-07-12T14:05:47;96010.36;;;26.28;30.11
31873;BME280;22407;42.820;23.374;2022-07-12T14:08:16;96013.55;;;26.53;29.20
31873;BME280;22407;42.820;23.374;2022-07-12T14:10:47;96009.44;;;26.99;27.40
31873;BME280;22407;42.820;23.374;2022-07-12T14:13:16;95996.25;;;27.36;27.54
31873;BME280;22407;42.820;23.374;2022-07-12T14:15:45;96003.90;;;26.57;28.34
31873;BME280;22407;42.820;23.374;2022-07-12T14:18:13;96015.16;;;26.08;29.29
31873;BME280;22407;42.820;23.374;2022-07-12T14:20:44;96009.80;;;26.63;29.16
31873;BME280;22407;42.820;23.374;2022-07-12T14:23:13;96009.55;;;26.74;29.16
31873;BME280;22407;42.820;23.374;2022-07-12T14:25:42;96004.30;;;27.00;28.22
31873;BME280;22407;42.820;23.374;2022-07-12T14:28:11;96010.73;;;26.97;28.57
31873;BME280;22407;42.820;23.374;2022-07-12T14:30:39;95997.13;;;27.27;27.92
31873;BME280;22407;42.820;23.374;2022-07-12T14:33:08;96003.88;;;26.76;27.85
31873;BME280;22407;42.820;23.374;2022-07-12T14:35:37;96011.26;;;25.88;29.50
31873;BME280;22407;42.820;23.374;2022-07-12T14:38:06;96020.84;;;25.02;29.96
31873;BME280;22407;42.820;23.374;2022-07-12T14:40:35;96012.17;;;24.80;31.01
31873;BME280;22407;42.820;23.374;2022-07-12T14:43:04;96012.78;;;25.68;30.58
31873;BME280;22407;42.820;23.374;2022-07-12T14:45:33;96006.04;;;26.12;29.42
31873;BME280;22407;42.820;23.374;2022-07-12T14:48:02;96013.05;;;26.10;29.62
31873;BME280;22407;42.820;23.374;2022-07-12T14:50:31;96012.41;;;25.64;29.86
31873;BME280;22407;42.820;23.374;2022-07-12T14:53:00;96010.55;;;25.33;30.60
31873;BME280;22407;42.820;23.374;2022-07-12T14:55:29;96014.57;;;25.24;30.82
31873;BME280;22407;42.820;23.374;2022-07-12T14:57:58;96011.23;;;25.22;31.13
31873;BME280;22407;42.820;23.374;2022-07-12T15:00:28;96006.87;;;25.21;31.21
31873;BME280;22407;42.820;23.374;2022-07-12T15:02:57;96010.72;;;25.54;30.65
31873;BME280;22407;42.820;23.374;2022-07-12T15:05:27;96011.58;;;25.16;30.41
31873;BME280;22407;42.820;23.374;2022-07-12T15:07:56;96006.16;;;25.32;29.95
31873;BME280;22407;42.820;23.374;2022-07-12T15:10:25;95996.58;;;25.71;29.72
31873;BME280;22407;42.820;23.374;2022-07-12T15:12:54;95999.34;;;25.23;30.90
31873;BME280;22407;42.820;23.374;2022-07-12T15:15:23;96003.70;;;24.85;31.49
31873;BME280;22407;42.820;23.374;2022-07-12T15:17:52;96003.64;;;24.54;32.67
31873;BME280;22407;42.820;23.374;2022-07-12T15:20:22;96002.58;;;24.48;32.82
31873;BME280;22407;42.820;23.374;2022-07-12T15:22:50;96012.05;;;24.19;33.49
31873;BME280;22407;42.820;23.374;2022-07-12T15:25:19;96014.51;;;23.91;33.94
31873;BME280;22407;42.820;23.374;2022-07-12T15:27:48;96013.46;;;23.85;34.30
31873;BME280;22407;42.820;23.374;2022-07-12T15:30:18;96012.54;;;23.82;35.36
31873;BME280;22407;42.820;23.374;2022-07-12T15:32:47;96014.52;;;23.84;35.25
31873;BME280;22407;42.820;23.374;2022-07-12T15:35:17;96017.49;;;23.65;34.70
31873;BME280;22407;42.820;23.374;2022-07-12T15:37:46;96014.17;;;23.30;35.22
31873;BME280;22407;42.820;23.374;2022-07-12T15:40:15;96020.59;;;23.09;35.92
31873;BME280;22407;42.820;23.374;2022-07-12T15:42:45;96018.44;;;22.98;36.86
31873;BME280;22407;42.820;23.374;2022-07-12T15:45:14;96026.97;;;22.95;36.61
31873;BME280;22407;42.820;23.374;2022-07-12T15:47:43;96028.91;;;22.90;36.63
31873;BME280;22407;42.820;23.374;2022-07-12T15:50:13;96037.36;;;22.91;36.80
31873;BME280;22407;42.820;23.374;2022-07-12T15:52:42;96034.33;;;22.90;37.31
31873;BME280;22407;42.820;23.374;2022-07-12T15:55:28;96033.50;;;22.90;37.27
31873;BME280;22407;42.820;23.374;2022-07-12T15:58:00;96031.94;;;22.84;38.34
31873;BME280;22407;42.820;23.374;2022-07-12T16:00:29;96027.38;;;23.36;36.59
31873;BME280;22407;42.820;23.374;2022-07-12T16:02:58;96030.03;;;24.00;34.95
31873;BME280;22407;42.820;23.374;2022-07-12T16:05:27;96033.98;;;23.91;34.55
31873;BME280;22407;42.820;23.374;2022-07-12T16:07:56;96033.66;;;23.56;35.58
31873;BME280;22407;42.820;23.374;2022-07-12T16:10:25;96031.45;;;23.36;36.42
31873;BME280;22407;42.820;23.374;2022-07-12T16:12:54;96031.14;;;23.28;37.04
31873;BME280;22407;42.820;23.374;2022-07-12T16:15:22;96036.75;;;23.20;37.01
31873;BME280;22407;42.820;23.374;2022-07-12T16:17:52;96036.66;;;23.31;36.45
31873;BME280;22407;42.820;23.374;2022-07-12T16:20:21;96037.34;;;23.15;36.39
31873;BME280;22407;42.820;23.374;2022-07-12T16:22:50;96040.27;;;23.14;36.86
31873;BME280;22407;42.820;23.374;2022-07-12T16:25:18;96040.72;;;23.24;36.67
31873;BME280;22407;42.820;23.374;2022-07-12T16:27:47;96041.45;;;23.48;36.22
31873;BME280;22407;42.820;23.374;2022-07-12T16:30:16;96042.91;;;23.31;36.74
31873;BME280;22407;42.820;23.374;2022-07-12T16:32:45;96049.23;;;23.21;36.91
31873;BME280;22407;42.820;23.374;2022-07-12T16:35:14;96045.69;;;23.14;35.67
31873;BME280;22407;42.820;23.374;2022-07-12T16:37:43;96048.27;;;22.80;35.63
31873;BME280;22407;42.820;23.374;2022-07-12T16:40:14;96052.55;;;22.92;36.49
31873;BME280;22407;42.820;23.374;2022-07-12T16:42:43;96050.16;;;22.86;36.66
31873;BME280;22407;42.820;23.374;2022-07-12T16:45:12;96048.89;;;22.82;37.05
31873;BME280;22407;42.820;23.374;2022-07-12T16:47:41;96046.84;;;22.67;37.07
31873;BME280;22407;42.820;23.374;2022-07-12T16:50:10;96051.67;;;22.72;37.55
31873;BME280;22407;42.820;23.374;2022-07-12T16:52:39;96054.28;;;22.76;37.82
31873;BME280;22407;42.820;23.374;2022-07-12T16:55:09;96050.42;;;22.74;37.13
31873;BME280;22407;42.820;23.374;2022-07-12T16:57:38;96055.48;;;22.66;37.61
31873;BME280;22407;42.820;23.374;2022-07-12T17:00:08;96057.25;;;22.63;37.33
31873;BME280;22407;42.820;23.374;2022-07-12T17:02:38;96054.73;;;22.62;37.58
31873;BME280;22407;42.820;23.374;2022-07-12T17:05:08;96056.17;;;22.58;38.07
31873;BME280;22407;42.820;23.374;2022-07-12T17:07:37;96054.78;;;22.34;38.01
31873;BME280;22407;42.820;23.374;2022-07-12T17:10:07;96057.39;;;22.20;37.98
31873;BME280;22407;42.820;23.374;2022-07-12T17:12:37;96062.31;;;22.10;38.89
31873;BME280;22407;42.820;23.374;2022-07-12T17:15:06;96065.38;;;22.00;38.73
31873;BME280;22407;42.820;23.374;2022-07-12T17:17:35;96062.11;;;21.83;38.76
31873;BME280;22407;42.820;23.374;2022-07-12T17:20:05;96068.82;;;21.77;39.69
31873;BME280;22407;42.820;23.374;2022-07-12T17:22:34;96066.34;;;21.75;39.20
31873;BME280;22407;42.820;23.374;2022-07-12T17:25:06;96068.85;;;21.55;39.60
31873;BME280;22407;42.820;23.374;2022-07-12T17:27:35;96072.84;;;21.59;39.96
31873;BME280;22407;42.820;23.374;2022-07-12T17:30:05;96068.86;;;21.44;40.22
31873;BME280;22407;42.820;23.374;2022-07-12T17:32:33;96069.97;;;21.24;40.48
31873;BME280;22407;42.820;23.374;2022-07-12T17:35:02;96071.91;;;21.20;39.99
31873;BME280;22407;42.820;23.374;2022-07-12T17:37:31;96073.05;;;21.00;40.76
31873;BME280;22407;42.820;23.374;2022-07-12T17:40:00;96080.25;;;20.78;41.76
31873;BME280;22407;42.820;23.374;2022-07-12T17:42:29;96071.91;;;20.54;42.59
31873;BME280;22407;42.820;23.374;2022-07-12T17:44:58;96083.33;;;20.30;43.04
31873;BME280;22407;42.820;23.374;2022-07-12T17:47:27;96083.50;;;20.14;44.14
31873;BME280;22407;42.820;23.374;2022-07-12T17:49:55;96077.83;;;19.94;44.67
31873;BME280;22407;42.820;23.374;2022-07-12T17:52:24;96083.64;;;19.82;45.61
31873;BME280;22407;42.820;23.374;2022-07-12T17:54:53;96082.46;;;19.85;45.93
31873;BME280;22407;42.820;23.374;2022-07-12T17:57:22;96081.87;;;19.94;46.50
31873;BME280;22407;42.820;23.374;2022-07-12T17:59:51;96090.06;;;19.81;48.11
31873;BME280;22407;42.820;23.374;2022-07-12T18:02:20;96090.86;;;19.63;48.50
31873;BME280;22407;42.820;23.374;2022-07-12T18:04:49;96093.25;;;19.39;48.83
31873;BME280;22407;42.820;23.374;2022-07-12T18:07:18;96088.84;;;19.19;49.88
31873;BME280;22407;42.820;23.374;2022-07-12T18:09:47;96100.23;;;18.98;51.00
31873;BME280;22407;42.820;23.374;2022-07-12T18:12:16;96104.88;;;18.73;51.83
31873;BME280;22407;42.820;23.374;2022-07-12T18:15:03;96109.17;;;18.47;52.64
31873;BME280;22407;42.820;23.374;2022-07-12T18:17:32;96105.72;;;18.21;53.26
31873;BME280;22407;42.820;23.374;2022-07-12T18:20:17;96108.38;;;18.34;53.14
31873;BME280;22407;42.820;23.374;2022-07-12T18:22:47;96105.06;;;18.15;53.56
31873;BME280;22407;42.820;23.374;2022-07-12T18:25:16;96113.00;;;17.88;54.31
31873;BME280;22407;42.820;23.374;2022-07-12T18:27:45;96113.16;;;17.50;55.11
31873;BME280;22407;42.820;23.374;2022-07-12T18:30:14;96113.13;;;17.17;56.86
31873;BME280;22407;42.820;23.374;2022-07-12T18:32:43;96120.33;;;17.12;55.77
31873;BME280;22407;42.820;23.374;2022-07-12T18:35:12;96119.48;;;17.04;55.78
31873;BME280;22407;42.820;23.374;2022-07-12T18:37:41;96124.18;;;17.06;54.97
31873;BME280;22407;42.820;23.374;2022-07-12T18:40:12;96130.77;;;16.77;56.11
31873;BME280;22407;42.820;23.374;2022-07-12T18:42:40;96139.05;;;16.53;56.99
31873;BME280;22407;42.820;23.374;2022-07-12T18:45:10;96146.09;;;16.50;57.05
31873;BME280;22407;42.820;23.374;2022-07-12T18:47:40;96151.42;;;16.46;57.38
31873;BME280;22407;42.820;23.374;2022-07-12T18:50:09;96144.73;;;16.54;56.30
31873;BME280;22407;42.820;23.374;2022-07-12T18:52:37;96147.36;;;16.38;57.73
31873;BME280;22407;42.820;23.374;2022-07-12T18:55:07;96153.81;;;16.23;58.33
31873;BME280;22407;42.820;23.374;2022-07-12T18:57:36;96154.76;;;16.44;57.59
31873;BME280;22407;42.820;23.374;2022-07-12T19:00:06;96153.25;;;16.15;58.10
31873;BME280;22407;42.820;23.374;2022-07-12T19:02:36;96162.95;;;16.16;58.20
31873;BME280;22407;42.820;23.374;2022-07-12T19:05:06;96163.08;;;16.07;58.73
31873;BME280;22407;42.820;23.374;2022-07-12T19:07:35;96162.63;;;15.93;59.63
31873;BME280;22407;42.820;23.374;2022-07-12T19:10:05;96161.31;;;15.97;59.38
31873;BME280;22407;42.820;23.374;2022-07-12T19:12:34;96166.48;;;15.55;60.80
31873;BME280;22407;42.820;23.374;2022-07-12T19:15:05;96166.13;;;15.54;62.66
31873;BME280;22407;42.820;23.374;2022-07-12T19:17:34;96167.42;;;15.46;61.80
31873;BME280;22407;42.820;23.374;2022-07-12T19:20:03;96180.19;;;15.56;61.97
31873;BME280;22407;42.820;23.374;2022-07-12T19:22:34;96173.28;;;15.49;61.87
